sensor_id;sensor_type;location;lat;lon;timestamp;temperature;humidity
49901;DHT22;35789;48.414;12.768;2023-05-10T00:00:00;12.4;98.6
49901;DHT22;35789;48.414;12.768;2023-05-10T00:05:00;12.4;99.1
49901;DHT22;35789;48.414;12.768;2023-05-10T00:10:00;12.3;99.2
49901;DHT22;35789;48.414;12.768;2023-05-10T00:15:00;12.3;99.2
49901;DHT22;35789;48.414;12.768;2023-05-10T00:20:00;12.3;98.9
49901;DHT22;35789;48.414;12.768;2023-05-10T00:25:00;12.3;99.1
49901;DHT22;35789;48.414;12.768;2023-05-10T00:30:00;12.2;99.0
49901;DHT22;35789;48.414;12.768;2023-05-10T00:35:00;12.3;99.2
49901;DHT22;35789;48.414;12.768;2023-05-10T00:40:00;12.2;99.1
49901;DHT22;35789;48.414;12.768;2023-05-10T00:45:00;12.2;99.0
49901;DHT22;35789;48.414;12.768;2023-05-10T00:50:00;12.1;98.9
49901;DHT22;35789;48.414;12.768;2023-05-10T00:55:00;12.1;99.2
49901;DHT22;35789;48.414;12.768;2023-05-10T01:00:00;12.1;99.9
49901;DHT22;35789;48.414;12.768;2023-05-10T01:05:00;12.1;99.9
49901;DHT22;35789;48.414;12.768;2023-05-10T01:10:00;12.1;99.9
49901;DHT22;35789;48.414;12.768;2023-05-10T01:15:00;12.2;99.9
49901;DHT22;35789;48.414;12.768;2023-05-10T01:20:00;12.1;99.9
49901;DHT22;35789;48.414;12.768;2023-05-10T01:30:04;12.0;99.9
49901;DHT22;35789;48.414;12.768;2023-05-10T01:35:01;12.0;99.9
49901;DHT22;35789;48.414;12.768;2023-05-10T01:40:02;12.0;99.9
49901;DHT22;35789;48.414;12.768;2023-05-10T01:45:02;12.0;99.9
49901;DHT22;35789;48.414;12.768;2023-05-10T01:50:01;12.1;99.9
49901;DHT22;35789;48.414;12.768;2023-05-10T01:55:01;12.1;99.9
49901;DHT22;35789;48.414;12.768;2023-05-10T02:00:01;12.1;99.9
49901;DHT22;35789;48.414;12.768;2023-05-10T02:05:00;12.2;99.9
49901;DHT22;35789;48.414;12.768;2023-05-10T02:10:00;12.2;99.9
49901;DHT22;35789;48.414;12.768;2023-05-10T02:15:00;12.2;99.9
49901;DHT22;35789;48.414;12.768;2023-05-10T02:20:00;12.1;99.9
49901;DHT22;35789;48.414;12.768;2023-05-10T02:25:00;12.0;99.9
49901;DHT22;35789;48.414;12.768;2023-05-10T02:30:00;12.0;99.9
49901;DHT22;35789;48.414;12.768;2023-05-10T02:35:00;11.9;99.9
49901;DHT22;35789;48.414;12.768;2023-05-10T02:40:00;11.9;99.9
49901;DHT22;35789;48.414;12.768;2023-05-10T02:45:01;11.9;99.9
49901;DHT22;35789;48.414;12.768;2023-05-10T02:50:00;11.9;99.9
49901;DHT22;35789;48.414;12.768;2023-05-10T02:55:00;11.9;99.9
49901;DHT22;35789;48.414;12.768;2023-05-10T03:00:00;11.9;99.9
49901;DHT22;35789;48.414;12.768;2023-05-10T03:05:00;12.0;99.9
49901;DHT22;35789;48.414;12.768;2023-05-10T03:10:00;12.0;99.9
49901;DHT22;35789;48.414;12.768;2023-05-10T03:15:01;12.0;99.9
49901;DHT22;35789;48.414;12.768;2023-05-10T03:20:03;12.0;99.9
49901;DHT22;35789;48.414;12.768;2023-05-10T03:25:00;12.0;99.9
49901;DHT22;35789;48.414;12.768;2023-05-10T03:30:01;11.9;99.9
49901;DHT22;35789;48.414;12.768;2023-05-10T03:35:00;11.9;99.9
49901;DHT22;35789;48.414;12.768;2023-05-10T03:40:00;11.8;99.9
49901;DHT22;35789;48.414;12.768;2023-05-10T03:45:00;11.9;99.9
49901;DHT22;35789;48.414;12.768;2023-05-10T03:50:00;11.9;99.9
49901;DHT22;35789;48.414;12.768;2023-05-10T03:55:00;11.8;99.9
49901;DHT22;35789;48.414;12.768;2023-05-10T04:00:00;11.8;99.9
49901;DHT22;35789;48.414;12.768;2023-05-10T04:05:00;11.8;99.9
49901;DHT22;35789;48.414;12.768;2023-05-10T04:10:00;11.8;99.9
49901;DHT22;35789;48.414;12.768;2023-05-10T04:15:00;11.9;99.9
49901;DHT22;35789;48.414;12.768;2023-05-10T04:20:00;11.9;99.9
49901;DHT22;35789;48.414;12.768;2023-05-10T04:25:00;11.9;99.9
49901;DHT22;35789;48.414;12.768;2023-05-10T04:30:00;12.0;99.9
49901;DHT22;35789;48.414;12.768;2023-05-10T04:35:00;12.1;99.9
49901;DHT22;35789;48.414;12.768;2023-05-10T04:40:00;12.3;99.9
49901;DHT22;35789;48.414;12.768;2023-05-10T04:45:00;12.4;99.9
49901;DHT22;35789;48.414;12.768;2023-05-10T04:50:00;12.4;99.9
49901;DHT22;35789;48.414;12.768;2023-05-10T04:55:00;12.5;99.9
49901;DHT22;35789;48.414;12.768;2023-05-10T05:00:00;12.5;99.9
49901;DHT22;35789;48.414;12.768;2023-05-10T05:05:00;12.5;99.9
49901;DHT22;35789;48.414;12.768;2023-05-10T05:10:00;12.5;99.9
49901;DHT22;35789;48.414;12.768;2023-05-10T05:15:00;12.6;99.9
49901;DHT22;35789;48.414;12.768;2023-05-10T05:20:00;12.6;99.9
49901;DHT22;35789;48.414;12.768;2023-05-10T05:25:00;12.6;99.9
49901;DHT22;35789;48.414;12.768;2023-05-10T05:30:00;12.7;99.9
49901;DHT22;35789;48.414;12.768;2023-05-10T05:35:00;12.6;99.9
49901;DHT22;35789;48.414;12.768;2023-05-10T05:40:00;12.6;99.9
49901;DHT22;35789;48.414;12.768;2023-05-10T05:45:00;12.7;99.9
49901;DHT22;35789;48.414;12.768;2023-05-10T05:50:00;12.8;99.9
49901;DHT22;35789;48.414;12.768;2023-05-10T05:55:00;12.8;99.9
49901;DHT22;35789;48.414;12.768;2023-05-10T06:00:00;12.9;99.9
49901;DHT22;35789;48.414;12.768;2023-05-10T06:05:00;12.9;99.9
49901;DHT22;35789;48.414;12.768;2023-05-10T06:10:00;13.0;99.9
49901;DHT22;35789;48.414;12.768;2023-05-10T06:15:00;13.0;99.9
49901;DHT22;35789;48.414;12.768;2023-05-10T06:20:00;13.0;99.9
49901;DHT22;35789;48.414;12.768;2023-05-10T06:25:00;13.0;99.9
49901;DHT22;35789;48.414;12.768;2023-05-10T06:30:00;13.0;99.9
49901;DHT22;35789;48.414;12.768;2023-05-10T06:35:00;13.1;99.9
49901;DHT22;35789;48.414;12.768;2023-05-10T06:40:00;13.1;99.9
49901;DHT22;35789;48.414;12.768;2023-05-10T06:45:00;13.2;99.9
49901;DHT22;35789;48.414;12.768;2023-05-10T06:50:00;13.2;99.9
49901;DHT22;35789;48.414;12.768;2023-05-10T06:55:00;13.3;99.9
49901;DHT22;35789;48.414;12.768;2023-05-10T07:00:00;13.4;99.9
49901;DHT22;35789;48.414;12.768;2023-05-10T07:05:00;13.4;99.9
49901;DHT22;35789;48.414;12.768;2023-05-10T07:10:00;13.4;99.9
49901;DHT22;35789;48.414;12.768;2023-05-10T07:15:00;13.3;99.9
49901;DHT22;35789;48.414;12.768;2023-05-10T07:20:00;13.3;99.9
49901;DHT22;35789;48.414;12.768;2023-05-10T07:25:00;13.2;99.9
49901;DHT22;35789;48.414;12.768;2023-05-10T07:30:00;13.0;99.9
49901;DHT22;35789;48.414;12.768;2023-05-10T07:35:00;13.0;99.9
49901;DHT22;35789;48.414;12.768;2023-05-10T07:40:00;13.0;99.9
49901;DHT22;35789;48.414;12.768;2023-05-10T07:45:00;13.0;99.9
49901;DHT22;35789;48.414;12.768;2023-05-10T07:50:00;12.9;99.9
49901;DHT22;35789;48.414;12.768;2023-05-10T07:55:00;13.0;99.9
49901;DHT22;35789;48.414;12.768;2023-05-10T08:00:00;13.1;99.9
49901;DHT22;35789;48.414;12.768;2023-05-10T08:05:00;13.2;99.9
49901;DHT22;35789;48.414;12.768;2023-05-10T08:10:00;13.2;99.9
49901;DHT22;35789;48.414;12.768;2023-05-10T08:15:00;13.3;99.9
49901;DHT22;35789;48.414;12.768;2023-05-10T08:20:00;13.3;99.9
49901;DHT22;35789;48.414;12.768;2023-05-10T08:25:00;13.3;99.9
49901;DHT22;35789;48.414;12.768;2023-05-10T08:30:00;13.2;99.9
49901;DHT22;35789;48.414;12.768;2023-05-10T08:35:00;13.1;99.9
49901;DHT22;35789;48.414;12.768;2023-05-10T08:40:00;13.0;99.9
49901;DHT22;35789;48.414;12.768;2023-05-10T08:45:00;12.9;99.9
49901;DHT22;35789;48.414;12.768;2023-05-10T08:50:00;12.9;99.9
49901;DHT22;35789;48.414;12.768;2023-05-10T08:55:00;12.9;99.9
49901;DHT22;35789;48.414;12.768;2023-05-10T09:00:00;12.9;99.9
49901;DHT22;35789;48.414;12.768;2023-05-10T09:05:00;12.9;99.9
49901;DHT22;35789;48.414;12.768;2023-05-10T09:10:00;13.0;99.9
49901;DHT22;35789;48.414;12.768;2023-05-10T09:15:00;13.0;99.9
49901;DHT22;35789;48.414;12.768;2023-05-10T09:20:00;13.0;99.9
49901;DHT22;35789;48.414;12.768;2023-05-10T09:25:04;13.0;99.9
49901;DHT22;35789;48.414;12.768;2023-05-10T09:30:00;13.1;99.9
49901;DHT22;35789;48.414;12.768;2023-05-10T09:35:05;13.0;99.9
49901;DHT22;35789;48.414;12.768;2023-05-10T09:40:00;13.0;99.9
49901;DHT22;35789;48.414;12.768;2023-05-10T09:45:01;13.2;99.9
49901;DHT22;35789;48.414;12.768;2023-05-10T09:50:00;13.4;99.9
49901;DHT22;35789;48.414;12.768;2023-05-10T09:55:00;13.7;99.9
49901;DHT22;35789;48.414;12.768;2023-05-10T10:00:00;14.0;99.9
49901;DHT22;35789;48.414;12.768;2023-05-10T10:05:00;14.1;99.9
49901;DHT22;35789;48.414;12.768;2023-05-10T10:10:00;14.2;99.9
49901;DHT22;35789;48.414;12.768;2023-05-10T10:15:00;14.2;99.9
49901;DHT22;35789;48.414;12.768;2023-05-10T10:20:00;14.1;99.9
49901;DHT22;35789;48.414;12.768;2023-05-10T10:25:00;14.4;99.9
49901;DHT22;35789;48.414;12.768;2023-05-10T10:30:01;14.5;99.9
49901;DHT22;35789;48.414;12.768;2023-05-10T10:35:00;14.6;99.9
49901;DHT22;35789;48.414;12.768;2023-05-10T10:40:00;14.6;99.9
49901;DHT22;35789;48.414;12.768;2023-05-10T10:50:04;14.7;99.9
49901;DHT22;35789;48.414;12.768;2023-05-10T10:55:01;14.8;99.9
49901;DHT22;35789;48.414;12.768;2023-05-10T11:05:09;15.3;99.9
49901;DHT22;35789;48.414;12.768;2023-05-10T11:10:03;15.4;99.9
49901;DHT22;35789;48.414;12.768;2023-05-10T11:15:00;15.4;99.9
49901;DHT22;35789;48.414;12.768;2023-05-10T11:20:08;15.1;99.9
49901;DHT22;35789;48.414;12.768;2023-05-10T11:25:00;14.6;99.9
49901;DHT22;35789;48.414;12.768;2023-05-10T11:30:00;14.2;99.9
49901;DHT22;35789;48.414;12.768;2023-05-10T11:35:05;13.6;99.9
49901;DHT22;35789;48.414;12.768;2023-05-10T11:40:00;13.2;99.9
49901;DHT22;35789;48.414;12.768;2023-05-10T11:45:00;13.1;99.9
49901;DHT22;35789;48.414;12.768;2023-05-10T11:50:00;13.1;99.9
49901;DHT22;35789;48.414;12.768;2023-05-10T11:55:00;13.0;99.9
49901;DHT22;35789;48.414;12.768;2023-05-10T12:00:00;13.2;99.9
49901;DHT22;35789;48.414;12.768;2023-05-10T12:05:00;13.2;99.9
49901;DHT22;35789;48.414;12.768;2023-05-10T12:10:04;13.2;99.9
49901;DHT22;35789;48.414;12.768;2023-05-10T12:15:01;13.1;99.9
49901;DHT22;35789;48.414;12.768;2023-05-10T12:25:00;13.1;99.9
49901;DHT22;35789;48.414;12.768;2023-05-10T12:30:00;13.0;99.9
49901;DHT22;35789;48.414;12.768;2023-05-10T12:35:00;13.1;99.9
49901;DHT22;35789;48.414;12.768;2023-05-10T12:40:00;13.1;99.9
49901;DHT22;35789;48.414;12.768;2023-05-10T12:45:00;13.0;99.9
49901;DHT22;35789;48.414;12.768;2023-05-10T12:50:00;13.1;99.9
49901;DHT22;35789;48.414;12.768;2023-05-10T12:55:00;13.2;99.9
49901;DHT22;35789;48.414;12.768;2023-05-10T13:00:00;13.3;99.9
49901;DHT22;35789;48.414;12.768;2023-05-10T13:05:00;13.3;99.9
49901;DHT22;35789;48.414;12.768;2023-05-10T13:10:00;13.3;99.9
49901;DHT22;35789;48.414;12.768;2023-05-10T13:15:00;13.4;99.9
49901;DHT22;35789;48.414;12.768;2023-05-10T13:20:00;13.3;99.9
49901;DHT22;35789;48.414;12.768;2023-05-10T13:25:00;13.3;99.9
49901;DHT22;35789;48.414;12.768;2023-05-10T13:30:00;13.3;99.9
49901;DHT22;35789;48.414;12.768;2023-05-10T13:35:00;13.3;99.9
49901;DHT22;35789;48.414;12.768;2023-05-10T13:40:00;13.3;99.9
49901;DHT22;35789;48.414;12.768;2023-05-10T13:45:00;13.4;99.9
49901;DHT22;35789;48.414;12.768;2023-05-10T13:50:00;13.4;99.9
49901;DHT22;35789;48.414;12.768;2023-05-10T13:55:00;13.5;99.9
49901;DHT22;35789;48.414;12.768;2023-05-10T14:00:00;13.5;99.9
49901;DHT22;35789;48.414;12.768;2023-05-10T14:05:00;13.5;99.9
49901;DHT22;35789;48.414;12.768;2023-05-10T14:10:00;13.6;99.9
49901;DHT22;35789;48.414;12.768;2023-05-10T14:15:00;13.8;99.9
49901;DHT22;35789;48.414;12.768;2023-05-10T14:20:00;13.9;99.9
49901;DHT22;35789;48.414;12.768;2023-05-10T14:25:00;13.8;99.9
49901;DHT22;35789;48.414;12.768;2023-05-10T14:30:00;13.7;99.9
49901;DHT22;35789;48.414;12.768;2023-05-10T14:35:00;13.9;99.9
49901;DHT22;35789;48.414;12.768;2023-05-10T14:40:00;13.9;99.9
49901;DHT22;35789;48.414;12.768;2023-05-10T14:45:00;13.8;99.9
49901;DHT22;35789;48.414;12.768;2023-05-10T14:50:00;13.8;99.9
49901;DHT22;35789;48.414;12.768;2023-05-10T14:55:00;13.7;99.9
49901;DHT22;35789;48.414;12.768;2023-05-10T15:00:00;13.5;99.9
49901;DHT22;35789;48.414;12.768;2023-05-10T15:05:00;13.4;99.9
49901;DHT22;35789;48.414;12.768;2023-05-10T15:10:00;13.5;99.9
49901;DHT22;35789;48.414;12.768;2023-05-10T15:15:00;13.5;99.9
49901;DHT22;35789;48.414;12.768;2023-05-10T15:20:00;13.4;99.9
49901;DHT22;35789;48.414;12.768;2023-05-10T15:25:00;13.4;99.9
49901;DHT22;35789;48.414;12.768;2023-05-10T15:30:00;13.4;99.9
49901;DHT22;35789;48.414;12.768;2023-05-10T15:35:00;13.3;99.9
49901;DHT22;35789;48.414;12.768;2023-05-10T15:40:00;13.2;99.9
49901;DHT22;35789;48.414;12.768;2023-05-10T15:45:00;13.1;99.9
49901;DHT22;35789;48.414;12.768;2023-05-10T15:50:00;13.0;99.9
49901;DHT22;35789;48.414;12.768;2023-05-10T15:55:00;13.0;99.9
49901;DHT22;35789;48.414;12.768;2023-05-10T16:00:00;13.0;99.9
49901;DHT22;35789;48.414;12.768;2023-05-10T16:05:00;13.1;99.9
49901;DHT22;35789;48.414;12.768;2023-05-10T16:10:00;12.9;99.9
49901;DHT22;35789;48.414;12.768;2023-05-10T16:15:00;12.9;99.9
49901;DHT22;35789;48.414;12.768;2023-05-10T16:20:00;12.8;99.9
49901;DHT22;35789;48.414;12.768;2023-05-10T16:25:00;12.8;99.9
49901;DHT22;35789;48.414;12.768;2023-05-10T16:30:00;12.8;99.9
49901;DHT22;35789;48.414;12.768;2023-05-10T16:35:00;12.7;99.9
49901;DHT22;35789;48.414;12.768;2023-05-10T16:40:00;12.6;99.9
49901;DHT22;35789;48.414;12.768;2023-05-10T16:45:00;12.5;99.9
49901;DHT22;35789;48.414;12.768;2023-05-10T16:50:00;12.5;99.9
49901;DHT22;35789;48.414;12.768;2023-05-10T16:55:00;12.5;99.9
49901;DHT22;35789;48.414;12.768;2023-05-10T17:00:00;12.4;99.9
49901;DHT22;35789;48.414;12.768;2023-05-10T17:05:00;12.4;99.9
49901;DHT22;35789;48.414;12.768;2023-05-10T17:10:00;12.3;99.9
49901;DHT22;35789;48.414;12.768;2023-05-10T17:15:00;12.3;99.9
49901;DHT22;35789;48.414;12.768;2023-05-10T17:20:00;12.4;99.9
49901;DHT22;35789;48.414;12.768;2023-05-10T17:25:00;12.4;99.9
49901;DHT22;35789;48.414;12.768;2023-05-10T17:30:00;12.4;99.9
49901;DHT22;35789;48.414;12.768;2023-05-10T17:35:01;12.4;99.9
49901;DHT22;35789;48.414;12.768;2023-05-10T17:40:00;12.4;99.9
49901;DHT22;35789;48.414;12.768;2023-05-10T17:45:00;12.4;99.9
49901;DHT22;35789;48.414;12.768;2023-05-10T17:50:00;12.4;99.9
49901;DHT22;35789;48.414;12.768;2023-05-10T17:55:00;12.3;99.9
49901;DHT22;35789;48.414;12.768;2023-05-10T18:00:00;12.2;99.9
49901;DHT22;35789;48.414;12.768;2023-05-10T18:05:00;12.3;99.9
49901;DHT22;35789;48.414;12.768;2023-05-10T18:10:03;12.3;99.9
49901;DHT22;35789;48.414;12.768;2023-05-10T18:15:00;12.3;99.9
49901;DHT22;35789;48.414;12.768;2023-05-10T18:20:00;12.2;99.9
49901;DHT22;35789;48.414;12.768;2023-05-10T18:25:00;12.2;99.9
49901;DHT22;35789;48.414;12.768;2023-05-10T18:30:00;12.2;99.9
49901;DHT22;35789;48.414;12.768;2023-05-10T18:35:00;12.2;99.9
49901;DHT22;35789;48.414;12.768;2023-05-10T18:40:00;12.2;99.9
49901;DHT22;35789;48.414;12.768;2023-05-10T18:45:00;12.1;99.9
49901;DHT22;35789;48.414;12.768;2023-05-10T18:50:01;12.1;99.9
49901;DHT22;35789;48.414;12.768;2023-05-10T18:55:00;12.0;99.9
49901;DHT22;35789;48.414;12.768;2023-05-10T19:00:00;12.0;99.9
49901;DHT22;35789;48.414;12.768;2023-05-10T19:05:00;11.9;99.9
49901;DHT22;35789;48.414;12.768;2023-05-10T19:10:00;11.9;99.9
49901;DHT22;35789;48.414;12.768;2023-05-10T19:15:00;11.9;99.9
49901;DHT22;35789;48.414;12.768;2023-05-10T19:20:00;11.9;99.9
49901;DHT22;35789;48.414;12.768;2023-05-10T19:25:00;11.8;99.9
49901;DHT22;35789;48.414;12.768;2023-05-10T19:30:00;11.9;99.9
49901;DHT22;35789;48.414;12.768;2023-05-10T19:35:00;11.9;99.9
49901;DHT22;35789;48.414;12.768;2023-05-10T19:40:00;11.8;99.9
49901;DHT22;35789;48.414;12.768;2023-05-10T19:45:00;11.9;99.9
49901;DHT22;35789;48.414;12.768;2023-05-10T19:50:00;11.9;99.9
49901;DHT22;35789;48.414;12.768;2023-05-10T19:55:00;11.8;99.9
49901;DHT22;35789;48.414;12.768;2023-05-10T20:00:00;11.8;99.9
49901;DHT22;35789;48.414;12.768;2023-05-10T20:05:00;11.8;99.9
49901;DHT22;35789;48.414;12.768;2023-05-10T20:10:00;11.8;99.9
49901;DHT22;35789;48.414;12.768;2023-05-10T20:15:00;11.7;99.9
49901;DHT22;35789;48.414;12.768;2023-05-10T20:20:00;11.6;99.9
49901;DHT22;35789;48.414;12.768;2023-05-10T20:25:00;11.5;99.9
49901;DHT22;35789;48.414;12.768;2023-05-10T20:30:00;11.4;99.9
49901;DHT22;35789;48.414;12.768;2023-05-10T20:35:00;11.3;99.9
49901;DHT22;35789;48.414;12.768;2023-05-10T20:40:00;11.3;99.9
49901;DHT22;35789;48.414;12.768;2023-05-10T20:45:00;11.3;99.9
49901;DHT22;35789;48.414;12.768;2023-05-10T20:50:00;11.3;99.9
49901;DHT22;35789;48.414;12.768;2023-05-10T20:55:00;11.2;99.9
49901;DHT22;35789;48.414;12.768;2023-05-10T21:00:00;11.3;99.9
49901;DHT22;35789;48.414;12.768;2023-05-10T21:05:00;11.2;99.9
49901;DHT22;35789;48.414;12.768;2023-05-10T21:10:00;11.2;99.9
49901;DHT22;35789;48.414;12.768;2023-05-10T21:15:00;11.2;99.9
49901;DHT22;35789;48.414;12.768;2023-05-10T21:20:00;11.2;99.9
49901;DHT22;35789;48.414;12.768;2023-05-10T21:25:00;11.3;99.9
49901;DHT22;35789;48.414;12.768;2023-05-10T21:30:00;11.1;99.9
49901;DHT22;35789;48.414;12.768;2023-05-10T21:35:00;11.2;99.9
49901;DHT22;35789;48.414;12.768;2023-05-10T21:40:00;11.1;99.9
49901;DHT22;35789;48.414;12.768;2023-05-10T21:45:00;11.2;99.9
49901;DHT22;35789;48.414;12.768;2023-05-10T21:50:00;11.1;99.9
49901;DHT22;35789;48.414;12.768;2023-05-10T21:55:00;11.1;99.9
49901;DHT22;35789;48.414;12.768;2023-05-10T22:00:00;11.2;99.9
49901;DHT22;35789;48.414;12.768;2023-05-10T22:05:00;11.1;99.9
49901;DHT22;35789;48.414;12.768;2023-05-10T22:10:00;11.1;99.9
49901;DHT22;35789;48.414;12.768;2023-05-10T22:15:00;11.0;99.9
49901;DHT22;35789;48.414;12.768;2023-05-10T22:20:00;11.0;99.9
49901;DHT22;35789;48.414;12.768;2023-05-10T22:25:00;10.9;99.9
49901;DHT22;35789;48.414;12.768;2023-05-10T22:30:00;11.0;99.9
49901;DHT22;35789;48.414;12.768;2023-05-10T22:35:00;10.9;99.9
49901;DHT22;35789;48.414;12.768;2023-05-10T22:40:00;10.9;99.9
49901;DHT22;35789;48.414;12.768;2023-05-10T22:45:00;10.9;99.9
49901;DHT22;35789;48.414;12.768;2023-05-10T22:50:00;10.9;99.9
49901;DHT22;35789;48.414;12.768;2023-05-10T22:55:00;10.9;99.9
49901;DHT22;35789;48.414;12.768;2023-05-10T23:00:00;10.8;99.9
49901;DHT22;35789;48.414;12.768;2023-05-10T23:05:00;10.7;99.9
49901;DHT22;35789;48.414;12.768;2023-05-10T23:10:00;10.7;99.9
49901;DHT22;35789;48.414;12.768;2023-05-10T23:15:00;10.7;99.9
49901;DHT22;35789;48.414;12.768;2023-05-10T23:20:00;10.7;99.9
49901;DHT22;35789;48.414;12.768;2023-05-10T23:25:00;10.8;99.9
49901;DHT22;35789;48.414;12.768;2023-05-10T23:30:00;10.7;99.9
49901;DHT22;35789;48.414;12.768;2023-05-10T23:35:00;10.7;99.9
49901;DHT22;35789;48.414;12.768;2023-05-10T23:40:00;unavailable;unavailable
49901;DHT22;35789;48.414;12.768;2023-05-10T23:45:00;10.6;99.9
49901;DHT22;35789;48.414;12.768;2023-05-10T23:50:00;10.6;99.9
49901;DHT22;35789;48.414;12.768;2023-05-10T23:55:00;10.6;99.9
